createdAt,value
2017-09-10T00:00:07.795Z,11.94
2017-09-10T00:02:35.318Z,12.12
2017-09-10T00:05:02.826Z,12.30
2017-09-10T00:07:30.341Z,12.15
2017-09-10T00:09:57.852Z,12.12
2017-09-10T00:12:25.364Z,12.26
2017-09-10T00:14:52.896Z,12.07
2017-09-10T00:17:20.402Z,12.30
2017-09-10T00:19:47.897Z,12.39
2017-09-10T00:22:15.442Z,12.23
2017-09-10T00:24:42.943Z,12.15
2017-09-10T00:27:10.455Z,12.16
2017-09-10T00:29:37.965Z,12.03
2017-09-10T00:32:05.462Z,12.09
2017-09-10T00:34:32.980Z,12.18
2017-09-10T00:37:00.498Z,12.04
2017-09-10T00:39:27.994Z,12.13
2017-09-10T00:41:55.507Z,12.12
2017-09-10T00:44:23.195Z,12.05
2017-09-10T00:46:50.727Z,12.21
2017-09-10T00:49:18.258Z,12.06
2017-09-10T00:51:45.767Z,12.01
2017-09-10T00:54:13.379Z,12.00
2017-09-10T00:56:40.891Z,12.13
2017-09-10T00:59:08.445Z,12.17
2017-09-10T01:01:35.955Z,11.98
2017-09-10T01:04:03.510Z,11.88
2017-09-10T01:06:31.015Z,12.11
2017-09-10T01:08:58.535Z,12.13
2017-09-10T01:11:26.048Z,12.29
2017-09-10T01:13:53.574Z,12.24
2017-09-10T01:16:21.103Z,12.10
2017-09-10T01:18:48.615Z,12.10
2017-09-10T01:21:16.120Z,11.93
2017-09-10T01:23:43.634Z,11.83
2017-09-10T01:26:11.152Z,11.85
2017-09-10T01:28:38.670Z,11.86
2017-09-10T01:31:06.197Z,11.97
2017-09-10T01:33:33.718Z,11.99
2017-09-10T01:36:01.232Z,11.95
2017-09-10T01:38:28.759Z,12.09
2017-09-10T01:40:56.274Z,12.12
2017-09-10T01:43:23.785Z,12.62
2017-09-10T01:45:51.297Z,12.51
2017-09-10T01:48:18.800Z,12.55
2017-09-10T01:50:46.314Z,12.48
2017-09-10T01:53:13.819Z,12.33
2017-09-10T01:55:41.381Z,12.40
2017-09-10T01:58:08.896Z,12.45
2017-09-10T02:00:36.422Z,12.43
2017-09-10T02:03:03.936Z,12.33
2017-09-10T02:05:31.454Z,12.53
2017-09-10T02:07:58.959Z,12.36
2017-09-10T02:10:26.469Z,12.18
2017-09-10T02:12:53.989Z,12.02
2017-09-10T02:15:21.522Z,11.79
2017-09-10T02:17:49.036Z,11.83
2017-09-10T02:20:16.543Z,11.79
2017-09-10T02:22:44.064Z,11.81
2017-09-10T02:25:11.582Z,11.93
2017-09-10T02:27:39.095Z,11.87
2017-09-10T02:30:06.604Z,11.86
2017-09-10T02:32:34.116Z,11.93
2017-09-10T02:35:01.624Z,11.79
2017-09-10T02:37:29.146Z,11.84
2017-09-10T02:39:56.690Z,11.75
2017-09-10T02:42:24.197Z,11.65
2017-09-10T02:44:51.731Z,11.77
2017-09-10T02:47:19.244Z,11.81
2017-09-10T02:49:46.767Z,11.75
2017-09-10T02:52:14.270Z,11.79
2017-09-10T02:54:41.869Z,11.68
2017-09-10T02:57:09.393Z,11.76
2017-09-10T02:59:36.907Z,11.63
2017-09-10T03:02:04.415Z,11.58
2017-09-10T03:04:31.932Z,11.73
2017-09-10T03:06:59.431Z,11.71
2017-09-10T03:09:26.934Z,11.67
2017-09-10T03:11:54.477Z,11.74
2017-09-10T03:14:22.013Z,11.75
2017-09-10T03:16:49.519Z,11.81
2017-09-10T03:19:17.049Z,11.77
2017-09-10T03:21:44.586Z,11.74
2017-09-10T03:24:12.116Z,11.95
2017-09-10T03:26:39.642Z,12.17
2017-09-10T03:29:07.151Z,11.88
2017-09-10T03:31:34.658Z,11.82
2017-09-10T03:34:02.164Z,11.66
2017-09-10T03:36:29.674Z,11.79
2017-09-10T03:38:57.171Z,11.76
2017-09-10T03:41:24.712Z,11.70
2017-09-10T03:43:52.236Z,11.75
2017-09-10T03:46:19.735Z,12.28
2017-09-10T03:48:47.240Z,12.19
2017-09-10T03:51:14.752Z,12.03
2017-09-10T03:53:42.270Z,12.02
2017-09-10T03:56:09.796Z,11.84
2017-09-10T03:58:37.294Z,11.83
2017-09-10T04:01:04.812Z,12.21
2017-09-10T04:03:32.327Z,11.93
2017-09-10T04:05:59.837Z,11.97
2017-09-10T04:08:27.342Z,12.00
2017-09-10T04:10:54.884Z,12.07
2017-09-10T04:13:22.392Z,11.81
2017-09-10T04:15:49.915Z,12.15
2017-09-10T04:18:17.425Z,12.07
2017-09-10T04:20:44.947Z,11.60
2017-09-10T04:23:12.458Z,11.52
2017-09-10T04:25:39.977Z,11.55
2017-09-10T04:28:07.490Z,11.65
2017-09-10T04:30:35.005Z,11.86
2017-09-10T04:33:02.512Z,11.68
2017-09-10T04:35:30.035Z,11.88
2017-09-10T04:37:57.540Z,11.70
2017-09-10T04:40:25.077Z,11.73
2017-09-10T04:42:52.624Z,11.66
2017-09-10T04:45:20.124Z,11.66
2017-09-10T04:47:47.628Z,11.71
2017-09-10T04:50:15.554Z,11.71
2017-09-10T04:52:43.216Z,11.58
2017-09-10T04:55:10.731Z,11.62
2017-09-10T04:57:38.251Z,11.60
2017-09-10T05:00:05.777Z,11.67
2017-09-10T05:02:33.312Z,12.06
2017-09-10T05:05:00.820Z,11.91
2017-09-10T05:07:28.405Z,11.87
2017-09-10T05:09:55.916Z,11.67
2017-09-10T05:12:23.429Z,11.68
2017-09-10T05:14:50.948Z,11.54
2017-09-10T05:17:18.637Z,11.71
2017-09-10T05:19:46.151Z,11.79
2017-09-10T05:22:13.680Z,11.71
2017-09-10T05:24:41.203Z,11.85
2017-09-10T05:27:08.720Z,11.90
2017-09-10T05:29:36.242Z,11.82
2017-09-10T05:32:03.763Z,11.84
2017-09-10T05:34:31.284Z,12.03
2017-09-10T05:36:58.788Z,12.04
2017-09-10T05:39:26.310Z,12.01
2017-09-10T05:41:53.826Z,11.96
2017-09-10T05:44:21.336Z,12.07
2017-09-10T05:46:48.838Z,12.08
2017-09-10T05:49:16.339Z,12.16
2017-09-10T05:51:43.861Z,12.12
2017-09-10T05:54:11.390Z,12.41
2017-09-10T05:56:38.902Z,12.41
2017-09-10T05:59:06.426Z,12.55
2017-09-10T06:01:33.941Z,12.51
2017-09-10T06:04:01.481Z,12.47
2017-09-10T06:06:28.992Z,12.47
2017-09-10T06:08:56.493Z,12.59
2017-09-10T06:11:23.997Z,12.58
2017-09-10T06:13:51.507Z,12.63
2017-09-10T06:16:19.043Z,12.79
2017-09-10T06:18:46.538Z,12.84
2017-09-10T06:21:14.065Z,12.71
2017-09-10T06:23:41.574Z,12.68
2017-09-10T06:26:09.077Z,12.92
2017-09-10T06:28:36.579Z,13.12
2017-09-10T06:31:04.091Z,13.32
2017-09-10T06:33:31.622Z,14.00
2017-09-10T06:35:59.160Z,13.87
2017-09-10T06:38:26.687Z,13.81
2017-09-10T06:40:54.192Z,14.19
2017-09-10T06:43:21.699Z,13.99
2017-09-10T06:45:49.326Z,13.38
2017-09-10T06:48:16.928Z,13.36
2017-09-10T06:50:44.469Z,13.32
2017-09-10T06:53:11.971Z,13.44
2017-09-10T06:55:39.483Z,13.62
2017-09-10T06:58:07.002Z,13.67
2017-09-10T07:00:34.515Z,13.66
2017-09-10T07:03:02.033Z,13.74
2017-09-10T07:05:29.534Z,14.63
2017-09-10T07:07:57.037Z,14.27
2017-09-10T07:10:24.564Z,13.96
2017-09-10T07:12:52.080Z,14.67
2017-09-10T07:15:19.606Z,14.73
2017-09-10T07:17:47.121Z,14.42
2017-09-10T07:20:14.618Z,14.29
2017-09-10T07:22:42.141Z,14.64
2017-09-10T07:25:09.671Z,14.27
2017-09-10T07:27:37.181Z,14.36
2017-09-10T07:30:04.727Z,15.06
2017-09-10T07:32:32.247Z,14.97
2017-09-10T07:34:59.758Z,15.35
2017-09-10T07:37:27.275Z,15.06
2017-09-10T07:39:54.794Z,14.85
2017-09-10T07:42:22.315Z,14.54
2017-09-10T07:44:49.832Z,14.26
2017-09-10T07:47:17.336Z,14.37
2017-09-10T07:49:44.856Z,14.31
2017-09-10T07:52:12.420Z,14.24
2017-09-10T07:54:39.929Z,14.75
2017-09-10T07:57:07.436Z,14.42
2017-09-10T07:59:34.940Z,14.35
2017-09-10T08:02:02.455Z,14.48
2017-09-10T08:04:29.965Z,14.57
2017-09-10T08:06:57.486Z,14.58
2017-09-10T08:09:24.994Z,14.64
2017-09-10T08:11:52.520Z,14.61
2017-09-10T08:14:20.047Z,14.55
2017-09-10T08:16:47.555Z,14.68
2017-09-10T08:19:15.086Z,14.62
2017-09-10T08:21:42.600Z,14.94
2017-09-10T08:24:10.144Z,14.78
2017-09-10T08:26:37.648Z,14.91
2017-09-10T08:29:05.213Z,15.19
2017-09-10T08:31:32.732Z,14.99
2017-09-10T08:34:00.251Z,14.84
2017-09-10T08:36:27.772Z,15.25
2017-09-10T08:38:55.303Z,14.47
2017-09-10T08:41:22.812Z,14.28
2017-09-10T08:43:50.343Z,14.81
2017-09-10T08:46:17.867Z,14.92
2017-09-10T08:48:45.938Z,15.23
2017-09-10T08:51:13.454Z,15.20
2017-09-10T08:53:40.968Z,15.91
2017-09-10T08:56:08.479Z,15.86
2017-09-10T08:58:35.990Z,16.28
2017-09-10T09:01:03.503Z,15.90
2017-09-10T09:03:31.033Z,15.82
2017-09-10T09:05:58.599Z,15.34
2017-09-10T09:08:26.111Z,15.96
2017-09-10T09:10:53.632Z,16.86
2017-09-10T09:13:21.152Z,17.03
2017-09-10T09:15:48.685Z,17.14
2017-09-10T09:18:16.212Z,16.85
2017-09-10T09:20:43.755Z,17.34
2017-09-10T09:23:11.328Z,16.83
2017-09-10T09:25:38.856Z,17.57
2017-09-10T09:28:06.402Z,18.28
2017-09-10T09:30:33.916Z,18.82
2017-09-10T09:33:01.448Z,20.52
2017-09-10T09:35:28.974Z,20.82
2017-09-10T09:37:56.524Z,19.78
2017-09-10T09:40:24.071Z,19.25
2017-09-10T09:42:51.588Z,20.57
2017-09-10T09:45:19.129Z,18.56
2017-09-10T09:47:46.663Z,19.69
2017-09-10T09:50:14.177Z,20.90
2017-09-10T09:52:41.696Z,21.30
2017-09-10T09:55:09.223Z,20.03
2017-09-10T09:57:36.804Z,20.70
2017-09-10T10:00:04.311Z,22.46
2017-09-10T10:02:31.835Z,22.34
2017-09-10T10:04:59.370Z,20.68
2017-09-10T10:07:26.879Z,22.38
2017-09-10T10:09:54.393Z,22.66
2017-09-10T10:12:21.894Z,22.14
2017-09-10T10:14:49.415Z,21.40
2017-09-10T10:17:16.943Z,21.03
2017-09-10T10:19:44.458Z,19.01
2017-09-10T10:22:11.972Z,18.93
2017-09-10T10:24:39.512Z,20.36
2017-09-10T10:27:07.022Z,21.59
2017-09-10T10:29:34.539Z,21.43
2017-09-10T10:32:02.071Z,20.99
2017-09-10T10:34:30.229Z,19.51
2017-09-10T10:36:57.768Z,18.71
2017-09-10T10:39:25.315Z,18.86
2017-09-10T10:41:52.822Z,19.27
2017-09-10T10:44:20.345Z,20.74
2017-09-10T10:46:47.872Z,21.56
2017-09-10T10:49:15.392Z,21.31
2017-09-10T10:51:42.904Z,20.58
2017-09-10T10:54:10.417Z,19.22
2017-09-10T10:56:37.931Z,17.51
2017-09-10T10:59:05.452Z,18.88
2017-09-10T11:01:32.979Z,19.16
2017-09-10T11:04:00.525Z,19.72
2017-09-10T11:06:28.058Z,18.13
2017-09-10T11:08:55.564Z,19.08
2017-09-10T11:11:23.101Z,20.62
2017-09-10T11:13:50.601Z,23.64
2017-09-10T11:16:18.124Z,26.87
2017-09-10T11:18:45.652Z,29.32
2017-09-10T11:21:13.214Z,30.68
2017-09-10T11:23:40.739Z,33.77
2017-09-10T11:26:08.263Z,31.69
2017-09-10T11:28:35.873Z,30.08
2017-09-10T11:31:03.384Z,26.88
2017-09-10T11:33:30.895Z,29.22
2017-09-10T11:35:58.398Z,32.77
2017-09-10T11:38:26.785Z,30.37
2017-09-10T11:40:54.298Z,27.38
2017-09-10T11:43:21.806Z,29.37
2017-09-10T11:45:49.312Z,32.82
2017-09-10T11:48:16.951Z,33.55
2017-09-10T11:50:44.585Z,28.80
2017-09-10T11:53:12.115Z,31.26
2017-09-10T11:55:39.615Z,30.60
2017-09-10T11:58:07.135Z,30.48
2017-09-10T12:00:34.764Z,28.89
2017-09-10T12:03:02.318Z,31.85
2017-09-10T12:05:29.826Z,32.18
2017-09-10T12:07:57.403Z,30.82
2017-09-10T12:10:24.898Z,29.00
2017-09-10T12:12:52.427Z,29.58
2017-09-10T12:15:19.938Z,31.08
2017-09-10T12:17:47.482Z,32.87
2017-09-10T12:20:15.020Z,28.67
2017-09-10T12:22:42.573Z,27.93
2017-09-10T12:25:10.101Z,33.06
2017-09-10T12:27:37.622Z,30.96
2017-09-10T12:30:05.139Z,30.60
2017-09-10T12:32:32.664Z,34.77
2017-09-10T12:35:00.191Z,34.43
2017-09-10T12:37:27.717Z,33.24
2017-09-10T12:39:55.215Z,33.06
2017-09-10T12:42:22.727Z,29.77
2017-09-10T12:44:50.262Z,32.36
2017-09-10T12:47:17.793Z,34.19
2017-09-10T12:49:45.367Z,32.72
2017-09-10T12:52:12.907Z,31.71
2017-09-10T12:54:40.431Z,33.99
2017-09-10T12:57:07.937Z,30.20
2017-09-10T12:59:35.472Z,29.07
2017-09-10T13:02:03.040Z,32.80
2017-09-10T13:04:30.567Z,32.37
2017-09-10T13:06:58.067Z,29.11
2017-09-10T13:09:25.596Z,29.08
2017-09-10T13:11:53.122Z,30.10
2017-09-10T13:14:20.632Z,31.08
2017-09-10T13:16:48.161Z,31.18
2017-09-10T13:19:15.727Z,29.62
2017-09-10T13:21:43.244Z,27.34
2017-09-10T13:24:10.881Z,28.85
2017-09-10T13:26:38.395Z,28.23
2017-09-10T13:29:05.911Z,26.65
2017-09-10T13:31:33.416Z,27.55
2017-09-10T13:34:00.956Z,25.22
2017-09-10T13:36:28.462Z,25.49
2017-09-10T13:38:55.968Z,27.35
2017-09-10T13:41:23.489Z,29.91
2017-09-10T13:43:51.012Z,30.53
2017-09-10T13:46:18.530Z,31.51
2017-09-10T13:48:46.041Z,29.00
2017-09-10T13:51:13.579Z,28.40
2017-09-10T13:53:41.091Z,27.04
2017-09-10T13:56:08.679Z,27.29
2017-09-10T13:58:36.200Z,31.56
2017-09-10T14:01:03.726Z,31.09
2017-09-10T14:03:31.262Z,29.38
2017-09-10T14:05:58.781Z,25.66
2017-09-10T14:08:26.375Z,25.81
2017-09-10T14:10:53.928Z,25.33
2017-09-10T14:13:21.550Z,26.29
2017-09-10T14:15:49.071Z,27.46
2017-09-10T14:18:16.619Z,27.04
2017-09-10T14:20:44.152Z,26.63
2017-09-10T14:23:11.695Z,23.26
2017-09-10T14:25:39.212Z,22.98
2017-09-10T14:28:06.796Z,22.19
2017-09-10T14:30:34.324Z,21.21
2017-09-10T14:33:01.836Z,21.26
2017-09-10T14:35:29.369Z,21.44
2017-09-10T14:37:56.886Z,21.21
2017-09-10T14:40:24.436Z,20.12
2017-09-10T14:42:51.943Z,20.57
2017-09-10T14:45:19.464Z,20.89
2017-09-10T14:47:46.964Z,21.10
2017-09-10T14:50:14.487Z,21.39
2017-09-10T14:52:42.054Z,22.12
2017-09-10T14:55:09.579Z,22.01
2017-09-10T14:57:37.142Z,20.81
2017-09-10T15:00:04.640Z,19.97
2017-09-10T15:02:32.159Z,19.61
2017-09-10T15:04:59.688Z,20.28
2017-09-10T15:07:27.260Z,20.92
2017-09-10T15:09:54.764Z,20.78
2017-09-10T15:12:22.347Z,20.83
2017-09-10T15:14:49.867Z,21.18
2017-09-10T15:17:17.383Z,20.86
2017-09-10T15:19:44.898Z,20.81
2017-09-10T15:22:12.421Z,20.85
2017-09-10T15:24:39.952Z,20.85
2017-09-10T15:27:07.471Z,21.18
2017-09-10T15:29:35.044Z,20.77
2017-09-10T15:32:02.547Z,20.51
2017-09-10T15:34:30.058Z,20.66
2017-09-10T15:36:57.563Z,20.70
2017-09-10T15:39:25.076Z,20.45
2017-09-10T15:41:52.595Z,20.22
2017-09-10T15:44:21.940Z,20.26
2017-09-10T15:46:49.447Z,20.55
2017-09-10T15:49:17.057Z,20.61
2017-09-10T15:51:44.562Z,20.37
2017-09-10T15:54:12.072Z,20.73
2017-09-10T15:56:39.608Z,20.72
2017-09-10T15:59:07.132Z,20.72
2017-09-10T16:01:34.683Z,20.70
2017-09-10T16:04:02.211Z,20.23
2017-09-10T16:06:29.716Z,20.05
2017-09-10T16:08:57.226Z,20.35
2017-09-10T16:11:24.728Z,20.23
2017-09-10T16:13:52.223Z,19.54
2017-09-10T16:16:19.723Z,18.76
2017-09-10T16:18:47.249Z,18.42
2017-09-10T16:21:14.770Z,18.52
2017-09-10T16:23:42.334Z,18.20
2017-09-10T16:26:09.871Z,18.29
2017-09-10T16:28:37.403Z,18.20
2017-09-10T16:31:04.936Z,18.00
2017-09-10T16:33:32.471Z,18.15
2017-09-10T16:35:59.990Z,18.38
2017-09-10T16:38:27.621Z,18.19
2017-09-10T16:40:55.136Z,18.19
2017-09-10T16:43:22.666Z,18.39
2017-09-10T16:45:50.188Z,18.35
2017-09-10T16:48:17.703Z,18.35
2017-09-10T16:50:45.229Z,18.84
2017-09-10T16:53:12.779Z,18.87
2017-09-10T16:55:40.429Z,18.71
2017-09-10T16:58:07.941Z,18.69
2017-09-10T17:00:35.653Z,18.30
2017-09-10T17:03:03.155Z,18.11
2017-09-10T17:05:30.690Z,17.75
2017-09-10T17:07:58.204Z,17.45
2017-09-10T17:10:25.796Z,17.37
2017-09-10T17:12:53.309Z,17.04
2017-09-10T17:15:20.852Z,16.65
2017-09-10T17:17:48.356Z,16.59
2017-09-10T17:20:15.875Z,15.88
2017-09-10T17:22:43.383Z,16.01
2017-09-10T17:25:10.908Z,15.77
2017-09-10T17:27:38.431Z,15.74
2017-09-10T17:30:05.968Z,15.59
2017-09-10T17:32:33.475Z,15.99
2017-09-10T17:35:01.015Z,16.01
2017-09-10T17:37:28.622Z,15.38
2017-09-10T17:39:56.203Z,15.15
2017-09-10T17:42:23.747Z,15.29
2017-09-10T17:44:51.263Z,14.92
2017-09-10T17:47:18.809Z,14.72
2017-09-10T17:49:46.460Z,14.75
2017-09-10T17:52:13.975Z,14.33
2017-09-10T17:54:41.491Z,14.02
2017-09-10T17:57:09.041Z,13.99
2017-09-10T17:59:36.589Z,13.88
2017-09-10T18:02:04.147Z,14.09
2017-09-10T18:04:31.694Z,13.88
2017-09-10T18:06:59.241Z,13.67
2017-09-10T18:09:26.757Z,13.70
2017-09-10T18:11:54.287Z,13.65
2017-09-10T18:14:21.811Z,13.58
2017-09-10T18:16:49.316Z,13.60
2017-09-10T18:19:16.833Z,13.51
2017-09-10T18:21:44.339Z,13.26
2017-09-10T18:24:11.867Z,13.42
2017-09-10T18:26:39.368Z,13.14
2017-09-10T18:29:06.888Z,13.00
2017-09-10T18:31:34.416Z,12.87
2017-09-10T18:34:01.927Z,12.90
2017-09-10T18:36:29.583Z,12.87
2017-09-10T18:38:57.130Z,12.72
2017-09-10T18:41:24.659Z,12.76
2017-09-10T18:43:52.158Z,12.74
2017-09-10T18:46:19.704Z,12.54
2017-09-10T18:48:47.230Z,12.60
2017-09-10T18:51:14.765Z,12.44
2017-09-10T18:53:42.313Z,12.23
2017-09-10T18:56:09.866Z,12.14
2017-09-10T18:58:37.372Z,12.10
2017-09-10T19:01:04.887Z,12.28
2017-09-10T19:03:32.389Z,12.19
2017-09-10T19:05:59.895Z,12.27
2017-09-10T19:08:27.412Z,12.18
2017-09-10T19:10:54.963Z,12.27
2017-09-10T19:13:22.519Z,12.26
2017-09-10T19:15:50.061Z,12.15
2017-09-10T19:18:17.579Z,11.98
2017-09-10T19:20:45.219Z,11.99
2017-09-10T19:23:12.730Z,12.08
2017-09-10T19:25:40.231Z,11.84
2017-09-10T19:28:07.748Z,11.83
2017-09-10T19:30:35.283Z,11.72
2017-09-10T19:33:02.792Z,11.55
2017-09-10T19:35:30.340Z,11.40
2017-09-10T19:37:57.979Z,11.35
2017-09-10T19:40:25.509Z,11.37
2017-09-10T19:42:53.028Z,11.27
2017-09-10T19:45:20.564Z,11.12
2017-09-10T19:47:48.098Z,11.24
2017-09-10T19:50:15.657Z,11.31
2017-09-10T19:52:43.365Z,11.61
2017-09-10T19:55:10.876Z,11.32
2017-09-10T19:57:38.449Z,11.70
2017-09-10T20:00:05.963Z,11.38
2017-09-10T20:02:33.572Z,10.97
2017-09-10T20:05:01.096Z,10.74
2017-09-10T20:07:28.616Z,10.62
2017-09-10T20:09:56.793Z,10.72
2017-09-10T20:12:24.316Z,10.68
2017-09-10T20:14:51.831Z,10.72
2017-09-10T20:17:19.382Z,10.83
2017-09-10T20:19:46.915Z,10.92
2017-09-10T20:22:14.554Z,10.91
2017-09-10T20:24:42.067Z,10.93
2017-09-10T20:27:09.591Z,10.67
2017-09-10T20:29:37.137Z,10.58
2017-09-10T20:32:04.653Z,10.40
2017-09-10T20:34:32.168Z,10.59
2017-09-10T20:36:59.693Z,10.48
2017-09-10T20:39:27.214Z,10.45
2017-09-10T20:41:54.720Z,10.65
2017-09-10T20:44:22.291Z,10.93
2017-09-10T20:46:49.815Z,11.01
2017-09-10T20:49:17.408Z,10.98
2017-09-10T20:51:44.921Z,10.77
2017-09-10T20:54:12.468Z,10.59
2017-09-10T20:56:40.006Z,10.66
2017-09-10T20:59:07.557Z,10.73
2017-09-10T21:01:35.100Z,10.63
2017-09-10T21:04:02.649Z,10.90
2017-09-10T21:06:30.199Z,11.02
2017-09-10T21:08:57.730Z,10.93
2017-09-10T21:11:25.239Z,10.94
2017-09-10T21:13:52.780Z,10.82
2017-09-10T21:16:20.288Z,11.01
2017-09-10T21:18:47.796Z,11.06
2017-09-10T21:21:15.304Z,11.04
2017-09-10T21:23:42.909Z,10.82
2017-09-10T21:26:10.410Z,10.87
2017-09-10T21:28:38.024Z,11.08
2017-09-10T21:31:05.585Z,11.23
2017-09-10T21:33:33.084Z,10.94
2017-09-10T21:36:00.588Z,10.89
2017-09-10T21:38:28.123Z,10.87
2017-09-10T21:40:55.660Z,11.03
2017-09-10T21:43:23.199Z,10.78
2017-09-10T21:45:50.707Z,10.69
2017-09-10T21:48:18.218Z,10.36
2017-09-10T21:50:45.722Z,10.28
2017-09-10T21:53:13.239Z,10.07
2017-09-10T21:55:40.742Z,10.07
2017-09-10T21:58:08.321Z,10.09
2017-09-10T22:00:35.829Z,10.14
2017-09-10T22:03:03.356Z,10.22
2017-09-10T22:05:30.871Z,10.01
2017-09-10T22:07:58.389Z,9.90
2017-09-10T22:10:25.905Z,9.91
2017-09-10T22:12:53.411Z,9.79
2017-09-10T22:15:21.015Z,9.76
2017-09-10T22:17:48.587Z,9.73
2017-09-10T22:20:16.087Z,9.70
2017-09-10T22:22:43.703Z,9.47
2017-09-10T22:25:11.200Z,9.44
2017-09-10T22:27:38.718Z,9.41
2017-09-10T22:30:06.276Z,9.51
2017-09-10T22:32:34.111Z,9.49
2017-09-10T22:35:01.635Z,9.35
2017-09-10T22:37:29.136Z,9.19
2017-09-10T22:39:56.900Z,9.30
2017-09-10T22:42:24.403Z,9.36
2017-09-10T22:44:51.899Z,9.49
2017-09-10T22:47:19.402Z,9.39
2017-09-10T22:49:46.930Z,9.42
2017-09-10T22:52:14.451Z,9.03
2017-09-10T22:54:41.954Z,9.02
2017-09-10T22:57:09.517Z,9.11
2017-09-10T22:59:37.022Z,8.88
2017-09-10T23:02:04.518Z,8.91
2017-09-10T23:04:32.016Z,8.82
2017-09-10T23:06:59.524Z,8.82
2017-09-10T23:09:29.847Z,8.83
2017-09-10T23:11:57.351Z,8.62
2017-09-10T23:14:24.862Z,8.60
2017-09-10T23:16:52.396Z,8.79
2017-09-10T23:19:19.904Z,8.74
2017-09-10T23:21:47.424Z,8.83
2017-09-10T23:24:14.948Z,8.73
2017-09-10T23:26:42.468Z,8.83
2017-09-10T23:29:09.976Z,8.56
2017-09-10T23:31:37.481Z,8.97
2017-09-10T23:34:05.005Z,8.87
2017-09-10T23:36:32.499Z,8.70
2017-09-10T23:38:59.997Z,8.57
2017-09-10T23:41:27.505Z,8.59
2017-09-10T23:43:55.010Z,8.35
2017-09-10T23:46:22.511Z,8.26
2017-09-10T23:48:50.006Z,8.13
2017-09-10T23:51:17.503Z,8.12
2017-09-10T23:53:45.024Z,8.40
2017-09-10T23:56:12.524Z,8.17
2017-09-10T23:58:40.023Z,8.22
